Time;durP1;ratioP1;P1;durP2;ratioP2;P2;SDS_P1;SDS_P2;PMS_P1;PMS_P2;Temp;Humidity;BMP_temperature;BMP_pressure;BME280_temperature;BME280_humidity;BME280_pressure;Samples;Min_cycle;Max_cycle;Signal;HPM_P1;HPM_P2
2021/07/21 00:00:28;;;;;;;8.63;7.83;;;22.80;98.20;;;;;;5029694;28;20472;-85
2021/07/21 00:02:56;;;;;;;9.35;8.18;;;22.80;98.30;;;;;;5011309;28;20129;-84
2021/07/21 00:05:28;;;;;;;11.63;8.00;;;22.70;98.30;;;;;;5013200;28;20037;-84
2021/07/21 00:07:56;;;;;;;8.57;7.55;;;22.70;98.50;;;;;;5030365;28;20057;-84
2021/07/21 00:10:26;;;;;;;8.60;7.90;;;22.60;98.60;;;;;;5022912;28;20128;-84
2021/07/21 00:15:46;;;;;;;9.05;7.60;;;22.60;98.80;;;;;;5028020;28;20045;-84
2021/07/21 00:18:25;;;;;;;10.00;7.45;;;22.50;98.90;;;;;;5018319;28;20053;-84
2021/07/21 00:20:53;;;;;;;9.25;7.78;;;22.60;98.90;;;;;;5021581;28;20117;-85
2021/07/21 00:23:20;;;;;;;9.57;8.35;;;22.50;98.90;;;;;;5021985;28;20041;-84
2021/07/21 00:25:48;;;;;;;10.05;8.15;;;22.50;99.00;;;;;;5030610;28;20479;-85
2021/07/21 00:28:16;;;;;;;10.25;7.43;;;22.50;99.10;;;;;;5014233;28;20096;-84
2021/07/21 00:30:44;;;;;;;10.13;8.27;;;22.40;99.10;;;;;;5020761;28;20382;-85
2021/07/21 00:33:11;;;;;;;9.82;7.10;;;22.40;99.20;;;;;;5013993;28;20479;-84
2021/07/21 00:35:38;;;;;;;8.07;7.38;;;22.40;99.20;;;;;;5022017;28;20045;-84
2021/07/21 00:38:05;;;;;;;8.10;7.30;;;22.40;99.30;;;;;;5017713;28;20049;-85
2021/07/21 00:40:33;;;;;;;9.88;7.95;;;22.40;99.40;;;;;;5014137;28;20052;-84
2021/07/21 00:43:00;;;;;;;10.98;8.13;;;22.40;99.60;;;;;;5043700;28;20060;-84
2021/07/21 00:45:27;;;;;;;8.55;7.70;;;22.30;99.70;;;;;;5030427;28;20041;-85
2021/07/21 00:47:54;;;;;;;9.48;7.82;;;22.30;99.80;;;;;;5013626;28;20050;-85
2021/07/21 00:50:21;;;;;;;9.30;7.68;;;22.20;99.90;;;;;;5019948;28;20045;-84
2021/07/21 00:52:50;;;;;;;9.73;7.75;;;22.30;99.90;;;;;;5015594;28;20046;-84
2021/07/21 00:55:17;;;;;;;9.27;8.07;;;22.20;99.90;;;;;;5014825;28;20068;-85
2021/07/21 00:57:45;;;;;;;9.00;8.10;;;22.20;99.90;;;;;;5018513;28;20053;-85
2021/07/21 01:00:17;;;;;;;8.95;8.02;;;22.10;99.90;;;;;;5020846;28;20387;-84
2021/07/21 01:02:47;;;;;;;8.60;7.80;;;22.10;99.90;;;;;;5023310;28;20046;-85
2021/07/21 01:05:21;;;;;;;9.05;8.13;;;22.10;99.90;;;;;;5018905;28;20042;-84
2021/07/21 01:07:50;;;;;;;11.57;7.80;;;22.10;99.90;;;;;;5016859;28;20060;-85
2021/07/21 01:10:18;;;;;;;9.95;8.43;;;22.10;99.90;;;;;;5011464;28;20054;-84
2021/07/21 01:12:52;;;;;;;11.30;8.10;;;22.10;99.90;;;;;;5017536;28;20072;-85
2021/07/21 01:15:24;;;;;;;10.10;7.68;;;22.00;99.90;;;;;;5035561;28;20049;-84
2021/07/21 01:18:10;;;;;;;8.98;8.07;;;22.00;99.90;;;;;;5016598;28;20053;-84
2021/07/21 01:20:43;;;;;;;10.13;7.95;;;22.00;99.90;;;;;;5025834;28;20049;-85
2021/07/21 01:23:32;;;;;;;8.93;7.40;;;21.90;99.90;;;;;;5017836;28;20052;-84
2021/07/21 01:26:34;;;;;;;9.20;8.20;;;21.90;99.90;;;;;;5030552;28;20045;-85
2021/07/21 01:29:03;;;;;;;10.40;8.35;;;21.90;99.90;;;;;;5012177;28;20056;-85
2021/07/21 01:31:31;;;;;;;;;;;21.90;99.90;;;;;;5018569;28;20507;-85
2021/07/21 01:34:01;;;;;;;10.35;8.00;;;21.80;99.90;;;;;;5013697;28;19921;-84
2021/07/21 01:36:37;;;;;;;10.00;7.97;;;21.80;99.90;;;;;;5012838;28;20041;-84
2021/07/21 01:39:12;;;;;;;9.98;8.27;;;21.80;99.90;;;;;;5033332;28;20498;-85
2021/07/21 01:41:47;;;;;;;10.65;8.05;;;21.80;99.90;;;;;;5030474;28;20049;-84
2021/07/21 01:44:20;;;;;;;9.43;7.60;;;21.80;99.90;;;;;;5030045;28;20056;-85
2021/07/21 01:46:53;;;;;;;8.48;7.60;;;21.80;99.90;;;;;;5042581;28;20057;-84
2021/07/21 01:49:22;;;;;;;9.68;8.10;;;21.80;99.90;;;;;;5013782;28;20068;-85
2021/07/21 01:51:50;;;;;;;9.10;8.23;;;21.80;99.90;;;;;;5018944;28;20048;-84
2021/07/21 01:54:20;;;;;;;10.65;7.63;;;21.80;99.90;;;;;;5031009;28;20049;-84
2021/07/21 01:56:48;;;;;;;12.65;8.40;;;21.80;99.90;;;;;;5009549;28;20099;-85
2021/07/21 01:59:16;;;;;;;11.13;8.45;;;21.80;99.90;;;;;;5012635;28;20050;-85
2021/07/21 02:01:45;;;;;;;9.55;8.02;;;21.80;99.90;;;;;;5015120;28;20045;-84
2021/07/21 02:04:13;;;;;;;9.32;8.32;;;21.80;99.90;;;;;;5009006;28;20042;-85
2021/07/21 02:06:41;;;;;;;12.55;8.20;;;21.80;99.90;;;;;;5033305;28;20044;-85
2021/07/21 02:09:10;;;;;;;10.77;8.13;;;21.80;99.90;;;;;;5012229;28;20056;-85
2021/07/21 02:11:41;;;;;;;10.57;8.68;;;21.70;99.90;;;;;;5017184;28;20053;-84
2021/07/21 02:14:10;;;;;;;10.35;8.30;;;21.70;99.90;;;;;;5011513;28;20037;-85
2021/07/21 02:16:38;;;;;;;10.70;8.13;;;21.70;99.90;;;;;;5013142;28;20045;-85
2021/07/21 02:19:06;;;;;;;10.13;8.60;;;21.70;99.90;;;;;;5014676;28;20049;-85
2021/07/21 02:21:37;;;;;;;11.75;8.40;;;21.70;99.90;;;;;;5012087;28;20048;-85
2021/07/21 02:24:07;;;;;;;14.18;8.40;;;21.70;99.90;;;;;;5011788;28;20050;-84
2021/07/21 02:26:39;;;;;;;9.20;8.30;;;21.60;99.90;;;;;;5004606;28;20491;-84
2021/07/21 02:29:07;;;;;;;9.50;8.57;;;21.60;99.90;;;;;;5016161;28;20105;-85
2021/07/21 02:31:44;;;;;;;13.47;9.53;;;21.60;99.90;;;;;;5029432;28;20048;-85
2021/07/21 02:34:11;;;;;;;9.57;8.57;;;21.60;99.90;;;;;;4996583;28;20053;-85
2021/07/21 02:36:40;;;;;;;13.77;8.60;;;21.60;99.90;;;;;;5022091;28;20056;-85
2021/07/21 02:39:07;;;;;;;12.13;8.55;;;21.60;99.90;;;;;;5017020;28;20056;-85
2021/07/21 02:41:36;;;;;;;10.88;8.30;;;21.60;99.90;;;;;;5030319;28;20041;-84
2021/07/21 02:44:03;;;;;;;;;;;21.60;99.90;;;;;;5036713;28;20041;-85
2021/07/21 02:46:30;;;;;;;10.25;8.48;;;21.60;99.90;;;;;;5028201;28;19928;-84
2021/07/21 02:48:58;;;;;;;11.48;8.88;;;21.50;99.90;;;;;;5013380;28;20049;-84
2021/07/21 02:51:46;;;;;;;11.85;8.60;;;21.50;99.90;;;;;;5021369;28;20049;-85
2021/07/21 02:54:13;;;;;;;9.65;8.57;;;21.50;99.90;;;;;;5031185;28;20132;-85
2021/07/21 02:56:55;;;;;;;11.80;8.50;;;21.50;99.90;;;;;;5013963;28;20041;-85
2021/07/21 02:59:29;;;;;;;10.38;9.27;;;21.50;99.90;;;;;;5008032;28;20060;-85
2021/07/21 03:02:01;;;;;;;11.27;8.38;;;21.50;99.90;;;;;;5013041;28;20052;-85
2021/07/21 03:04:29;;;;;;;12.75;8.60;;;21.50;99.90;;;;;;5018055;28;20084;-84
2021/07/21 03:06:57;;;;;;;9.85;8.95;;;21.40;99.90;;;;;;5036262;28;20045;-84
2021/07/21 03:09:25;;;;;;;9.82;8.57;;;21.50;99.90;;;;;;5028947;28;20057;-84
2021/07/21 03:11:55;;;;;;;9.55;8.27;;;21.40;99.90;;;;;;5009770;28;20045;-84
2021/07/21 03:14:22;;;;;;;10.50;7.97;;;21.40;99.90;;;;;;5029095;28;20042;-85
2021/07/21 03:16:52;;;;;;;12.55;8.75;;;21.40;99.90;;;;;;5012243;28;20057;-84
2021/07/21 03:19:23;;;;;;;9.30;8.13;;;21.40;99.90;;;;;;5011563;28;20475;-85
2021/07/21 03:21:51;;;;;;;12.55;8.65;;;21.40;99.90;;;;;;5002008;28;20058;-85
2021/07/21 03:24:22;;;;;;;11.90;8.40;;;21.40;99.90;;;;;;5014214;28;20121;-85
2021/07/21 03:26:50;;;;;;;11.07;8.40;;;21.40;99.90;;;;;;5011456;28;20046;-85
2021/07/21 03:29:19;;;;;;;11.38;8.90;;;21.30;99.90;;;;;;5029468;28;20052;-85
2021/07/21 03:31:47;;;;;;;13.07;8.48;;;21.30;99.90;;;;;;5010760;28;20057;-85
2021/07/21 03:34:17;;;;;;;12.07;9.15;;;21.30;99.90;;;;;;5013456;28;20045;-84
2021/07/21 03:36:47;;;;;;;11.52;9.07;;;21.30;99.90;;;;;;5009579;28;20100;-85
2021/07/21 03:39:14;;;;;;;11.82;9.43;;;21.30;99.90;;;;;;5019650;28;20046;-85
2021/07/21 03:41:42;;;;;;;9.93;9.02;;;21.20;99.90;;;;;;5032240;28;20041;-85
2021/07/21 03:44:11;;;;;;;11.32;9.10;;;21.20;99.90;;;;;;5015573;28;20041;-85
2021/07/21 03:46:40;;;;;;;16.85;9.60;;;21.20;99.90;;;;;;5015878;28;20104;-85
2021/07/21 03:49:07;;;;;;;;;;;21.20;99.90;;;;;;5033118;28;20573;-85
2021/07/21 03:51:37;;;;;;;11.77;9.13;;;21.10;99.90;;;;;;5033159;28;19925;-84
2021/07/21 03:54:08;;;;;;;11.65;9.48;;;21.10;99.90;;;;;;5019914;28;20479;-85
2021/07/21 03:56:41;;;;;;;12.45;9.43;;;21.10;99.90;;;;;;5008984;28;20468;-85
2021/07/21 03:59:14;;;;;;;11.18;9.57;;;21.10;99.90;;;;;;5010991;28;20052;-84
2021/07/21 04:01:42;;;;;;;14.07;9.77;;;21.00;99.90;;;;;;5015858;28;20045;-84
2021/07/21 04:04:12;;;;;;;12.70;9.80;;;21.00;99.90;;;;;;5017750;28;20140;-85
2021/07/21 04:06:40;;;;;;;14.18;10.32;;;21.00;99.90;;;;;;5018066;28;20416;-84
2021/07/21 04:09:13;;;;;;;11.25;9.23;;;21.00;99.90;;;;;;5031497;28;20074;-85
2021/07/21 04:11:40;;;;;;;15.02;9.43;;;21.00;99.90;;;;;;5010320;28;20053;-85
2021/07/21 04:14:11;;;;;;;10.77;9.65;;;20.90;99.90;;;;;;5030073;28;20092;-85
2021/07/21 04:16:39;;;;;;;13.73;9.13;;;20.90;99.90;;;;;;5015332;28;20041;-85
2021/07/21 04:19:09;;;;;;;11.37;9.53;;;20.90;99.90;;;;;;5030018;28;20044;-85
2021/07/21 04:21:56;;;;;;;15.75;9.38;;;20.90;99.90;;;;;;5012566;28;20037;-85
2021/07/21 04:24:24;;;;;;;14.10;9.35;;;20.90;99.90;;;;;;5016371;28;20049;-84
2021/07/21 04:26:52;;;;;;;9.90;8.90;;;20.90;99.90;;;;;;5012372;28;20049;-85
2021/07/21 04:29:24;;;;;;;12.70;9.53;;;20.90;99.90;;;;;;5014026;28;20752;-84
2021/07/21 04:31:52;;;;;;;12.60;8.70;;;20.90;99.90;;;;;;5024441;28;20747;-85
2021/07/21 04:34:20;;;;;;;11.30;9.90;;;20.90;99.90;;;;;;5014797;28;20483;-85
2021/07/21 04:36:49;;;;;;;13.02;9.55;;;20.80;99.90;;;;;;5018205;28;20049;-85
2021/07/21 04:39:19;;;;;;;12.15;9.50;;;20.80;99.90;;;;;;5030594;28;20475;-85
2021/07/21 04:41:51;;;;;;;12.15;9.18;;;20.80;99.90;;;;;;5031919;28;20049;-85
2021/07/21 04:44:19;;;;;;;10.30;8.18;;;20.80;99.90;;;;;;5014930;28;20045;-84
2021/07/21 04:46:47;;;;;;;14.13;9.15;;;20.80;99.90;;;;;;5014088;28;20387;-85
2021/07/21 04:49:19;;;;;;;16.15;9.48;;;20.80;99.90;;;;;;5011957;28;20100;-85
2021/07/21 04:51:48;;;;;;;12.70;9.48;;;20.80;99.90;;;;;;5003566;28;20053;-84
2021/07/21 04:54:15;;;;;;;11.32;9.07;;;20.80;99.90;;;;;;5011322;28;20099;-85
2021/07/21 04:56:42;;;;;;;12.82;9.70;;;20.80;99.90;;;;;;5027258;28;20045;-85
2021/07/21 04:59:09;;;;;;;10.88;9.75;;;20.80;99.90;;;;;;5003511;28;20046;-85
2021/07/21 05:01:37;;;;;;;11.65;10.10;;;20.70;99.90;;;;;;4993343;28;20049;-84
2021/07/21 05:04:06;;;;;;;10.98;9.80;;;20.70;99.90;;;;;;4994210;28;20510;-85
2021/07/21 05:06:33;;;;;;;11.95;9.50;;;20.70;99.90;;;;;;4995779;28;20125;-85
2021/07/21 05:09:00;;;;;;;13.13;9.45;;;20.70;99.90;;;;;;4996375;28;20042;-85
2021/07/21 05:11:29;;;;;;;10.20;8.93;;;20.70;99.90;;;;;;5009834;28;20379;-84
2021/07/21 05:13:57;;;;;;;13.95;9.52;;;20.70;99.90;;;;;;4996055;28;20385;-85
2021/07/21 05:16:24;;;;;;;11.53;9.60;;;20.70;99.90;;;;;;5012214;28;20158;-85
2021/07/21 05:18:51;;;;;;;15.40;9.00;;;20.70;99.90;;;;;;5011878;28;20137;-84
2021/07/21 05:21:17;;;;;;;12.55;8.63;;;20.70;99.90;;;;;;4994553;28;20121;-85
2021/07/21 05:23:44;;;;;;;12.38;8.68;;;20.80;99.90;;;;;;5012130;28;20105;-85
2021/07/21 05:26:12;;;;;;;11.15;9.10;;;20.70;99.90;;;;;;4994797;28;20050;-85
2021/07/21 05:28:40;;;;;;;13.57;9.13;;;20.70;99.90;;;;;;4994930;28;20046;-85
2021/07/21 05:31:08;;;;;;;10.60;8.77;;;20.80;99.90;;;;;;4995109;28;20045;-85
2021/07/21 05:33:36;;;;;;;15.77;9.67;;;20.80;99.90;;;;;;4995767;28;20069;-85
2021/07/21 05:36:04;;;;;;;10.63;8.68;;;20.80;99.90;;;;;;4993169;28;20300;-85
2021/07/21 05:38:32;;;;;;;12.55;8.38;;;20.90;99.90;;;;;;4999818;28;20525;-86
2021/07/21 05:40:59;;;;;;;15.70;9.48;;;20.90;99.90;;;;;;4989348;28;20050;-86
2021/07/21 05:43:29;;;;;;;13.77;9.23;;;21.00;99.90;;;;;;5011318;28;20053;-85
2021/07/21 05:45:56;;;;;;;10.10;8.50;;;21.00;99.90;;;;;;4994743;28;20050;-86
2021/07/21 05:48:23;;;;;;;15.63;8.65;;;21.10;99.90;;;;;;4988466;28;20045;-85
2021/07/21 05:50:51;;;;;;;12.50;8.95;;;21.20;99.90;;;;;;4997732;28;20495;-85
2021/07/21 05:53:18;;;;;;;11.93;8.77;;;21.20;99.90;;;;;;4990138;28;20129;-85
2021/07/21 05:55:44;;;;;;;13.98;9.05;;;21.30;99.90;;;;;;4993742;28;20092;-85
2021/07/21 05:58:14;;;;;;;12.38;8.48;;;21.30;99.90;;;;;;4994972;28;20088;-84
2021/07/21 06:00:42;;;;;;;10.40;8.77;;;21.40;99.90;;;;;;5030714;28;20041;-85
2021/07/21 06:03:09;;;;;;;10.60;8.35;;;21.40;99.90;;;;;;5012522;28;20054;-85
2021/07/21 06:05:38;;;;;;;13.48;8.65;;;21.50;99.90;;;;;;5032271;28;20046;-85
2021/07/21 06:08:05;;;;;;;;;;;21.60;99.90;;;;;;5012987;28;20049;-85
2021/07/21 06:10:33;;;;;;;14.35;9.02;;;21.60;99.90;;;;;;5030732;28;19921;-85
2021/07/21 06:13:00;;;;;;;11.35;8.55;;;21.70;99.90;;;;;;5029719;28;20128;-85
2021/07/21 06:15:29;;;;;;;9.57;8.38;;;21.70;99.90;;;;;;5029224;28;20049;-85
2021/07/21 06:17:56;;;;;;;12.85;8.52;;;21.80;99.90;;;;;;5013228;28;20079;-86
2021/07/21 06:20:24;;;;;;;13.35;9.00;;;21.90;99.90;;;;;;5028167;28;20132;-86
2021/07/21 06:22:51;;;;;;;12.93;8.95;;;22.00;99.90;;;;;;5011226;28;20054;-86
2021/07/21 06:25:18;;;;;;;11.80;8.82;;;22.00;99.90;;;;;;5011174;28;20053;-85
2021/07/21 06:27:44;;;;;;;11.93;9.45;;;22.10;99.90;;;;;;5017836;28;20041;-86
2021/07/21 06:30:12;;;;;;;11.23;9.45;;;22.20;99.90;;;;;;5012701;28;20057;-86
2021/07/21 06:32:39;;;;;;;14.53;8.77;;;22.30;99.90;;;;;;5012435;28;20096;-86
2021/07/21 06:35:08;;;;;;;12.23;9.07;;;22.40;99.90;;;;;;5013990;28;20045;-86
2021/07/21 06:37:36;;;;;;;12.40;9.25;;;22.50;99.90;;;;;;5013415;28;20044;-86
2021/07/21 06:40:05;;;;;;;10.63;9.20;;;22.60;99.90;;;;;;5012062;28;20045;-87
2021/07/21 06:42:32;;;;;;;13.43;8.75;;;22.70;99.90;;;;;;5034600;28;20052;-86
2021/07/21 06:45:00;;;;;;;10.90;9.32;;;22.80;99.90;;;;;;5022248;28;20041;-86
2021/07/21 06:47:26;;;;;;;11.30;8.27;;;22.90;99.90;;;;;;5021587;28;20526;-86
2021/07/21 06:49:55;;;;;;;;;;;23.00;99.90;;;;;;5018035;28;20053;-86
2021/07/21 06:52:24;;;;;;;13.95;9.30;;;23.10;99.90;;;;;;5028883;28;19936;-86
2021/07/21 06:54:52;;;;;;;10.85;8.48;;;23.20;99.90;;;;;;5014709;28;20071;-86
2021/07/21 06:57:19;;;;;;;11.57;9.00;;;23.30;99.90;;;;;;5031350;28;20056;-86
2021/07/21 06:59:47;;;;;;;13.45;8.63;;;23.40;99.90;;;;;;5015355;28;20049;-86
2021/07/21 07:02:13;;;;;;;14.80;8.75;;;23.50;99.90;;;;;;5015766;28;20041;-86
2021/07/21 07:04:41;;;;;;;9.63;8.60;;;23.70;99.90;;;;;;5012216;28;20081;-86
2021/07/21 07:07:08;;;;;;;11.20;9.10;;;23.80;99.90;;;;;;5026069;28;20476;-86
2021/07/21 07:09:36;;;;;;;11.10;8.45;;;23.90;99.90;;;;;;5002654;28;20053;-86
2021/07/21 07:12:03;;;;;;;11.55;8.70;;;24.10;99.90;;;;;;5009627;28;20494;-85
2021/07/21 07:14:30;;;;;;;11.37;8.00;;;24.20;99.90;;;;;;5020955;28;20045;-86
2021/07/21 07:16:57;;;;;;;14.27;9.80;;;24.30;99.90;;;;;;5020842;28;20049;-86
2021/07/21 07:19:24;;;;;;;10.65;8.95;;;24.50;99.90;;;;;;5014603;28;20069;-86
2021/07/21 07:21:51;;;;;;;11.60;9.30;;;24.60;99.90;;;;;;5016907;28;20053;-86
2021/07/21 07:24:19;;;;;;;12.10;8.98;;;24.80;99.90;;;;;;5015683;28;20443;-86
2021/07/21 07:26:47;;;;;;;13.52;10.10;;;24.90;99.90;;;;;;5015972;28;20060;-86
2021/07/21 07:29:14;;;;;;;16.27;9.82;;;25.00;99.90;;;;;;5013860;28;20057;-86
2021/07/21 07:31:41;;;;;;;9.68;8.60;;;25.20;99.90;;;;;;5013299;28;20042;-86
2021/07/21 07:34:08;;;;;;;13.15;8.80;;;25.30;99.90;;;;;;5014909;28;20063;-86
2021/07/21 07:36:37;;;;;;;10.88;9.10;;;25.40;99.90;;;;;;5033984;28;20068;-86
2021/07/21 07:39:05;;;;;;;14.60;9.75;;;25.60;99.90;;;;;;5015151;28;20046;-86
2021/07/21 07:41:32;;;;;;;12.52;9.27;;;25.70;99.90;;;;;;5008141;28;20112;-86
2021/07/21 07:43:59;;;;;;;15.10;9.75;;;25.80;99.90;;;;;;5033839;28;20042;-86
2021/07/21 07:46:27;;;;;;;13.50;9.68;;;25.90;99.70;;;;;;5019205;28;20463;-86
2021/07/21 07:48:55;;;;;;;11.30;8.98;;;26.00;99.40;;;;;;5017525;28;20059;-85
2021/07/21 07:51:23;;;;;;;10.43;9.35;;;26.20;99.10;;;;;;5044446;28;20049;-86
2021/07/21 07:53:51;;;;;;;14.07;9.75;;;26.30;99.10;;;;;;5017450;28;20054;-85
2021/07/21 07:56:19;;;;;;;16.80;10.65;;;26.40;98.80;;;;;;5010758;28;20045;-86
2021/07/21 07:58:46;;;;;;;14.82;9.60;;;26.50;98.60;;;;;;5013441;28;20049;-86
2021/07/21 08:01:13;;;;;;;14.90;10.02;;;26.60;98.50;;;;;;5014017;28;20037;-86
2021/07/21 08:03:40;;;;;;;11.55;9.82;;;26.70;98.30;;;;;;5028241;28;20360;-86
2021/07/21 08:06:08;;;;;;;14.23;9.43;;;26.80;98.20;;;;;;5031685;28;20049;-86
2021/07/21 08:08:35;;;;;;;11.23;9.32;;;27.00;98.10;;;;;;5024012;28;20429;-86
2021/07/21 08:11:05;;;;;;;11.90;10.02;;;27.10;97.80;;;;;;5015995;28;20038;-86
2021/07/21 08:13:32;;;;;;;10.90;8.88;;;27.20;97.40;;;;;;5014806;28;20380;-86
2021/07/21 08:15:59;;;;;;;16.57;11.77;;;27.30;97.20;;;;;;5015746;28;20064;-86
2021/07/21 08:18:26;;;;;;;16.80;10.95;;;27.40;96.90;;;;;;5007193;28;20663;-86
2021/07/21 08:20:54;;;;;;;11.95;9.70;;;27.50;96.40;;;;;;5030075;28;20053;-86
2021/07/21 08:23:21;;;;;;;13.48;11.43;;;27.60;96.20;;;;;;5014494;28;20045;-86
2021/07/21 08:25:48;;;;;;;16.00;11.35;;;27.70;95.90;;;;;;5007319;28;20057;-86
2021/07/21 08:28:16;;;;;;;12.70;10.27;;;27.80;95.80;;;;;;5018112;28;20062;-86
2021/07/21 08:30:44;;;;;;;15.13;11.77;;;27.90;95.70;;;;;;5012811;28;20670;-86
2021/07/21 08:33:12;;;;;;;15.43;11.02;;;28.00;95.50;;;;;;5011323;28;20431;-86
2021/07/21 08:35:39;;;;;;;18.27;11.30;;;28.20;95.10;;;;;;5015568;28;20504;-86
2021/07/21 08:38:07;;;;;;;13.30;10.70;;;28.30;95.00;;;;;;5009898;28;20057;-86
2021/07/21 08:40:36;;;;;;;15.48;11.18;;;28.30;94.70;;;;;;5014076;28;20370;-86
2021/07/21 08:43:23;;;;;;;15.55;11.65;;;28.50;94.40;;;;;;5023586;28;20045;-86
2021/07/21 08:45:52;;;;;;;17.00;11.23;;;28.60;94.30;;;;;;5029252;28;20045;-86
2021/07/21 08:48:20;;;;;;;11.57;10.38;;;28.70;94.20;;;;;;5008470;28;20443;-86
2021/07/21 08:50:47;;;;;;;16.02;11.40;;;28.80;94.00;;;;;;5011335;28;20077;-86
2021/07/21 08:53:16;;;;;;;13.30;11.40;;;28.80;93.80;;;;;;5024047;28;20045;-86
2021/07/21 08:55:43;;;;;;;17.95;11.68;;;28.90;93.70;;;;;;5007444;28;20502;-86
2021/07/21 08:58:12;;;;;;;20.67;12.15;;;29.00;93.40;;;;;;5007164;28;20524;-87
2021/07/21 09:00:39;;;;;;;12.98;11.23;;;29.10;93.20;;;;;;5011160;28;20427;-86
2021/07/21 09:03:06;;;;;;;13.23;10.87;;;29.10;93.30;;;;;;5010540;28;20249;-86
2021/07/21 09:05:34;;;;;;;12.85;10.93;;;29.20;93.00;;;;;;5022781;28;20049;-86
2021/07/21 09:08:01;;;;;;;14.57;11.25;;;29.30;92.80;;;;;;5011961;28;20368;-86
2021/07/21 09:10:28;;;;;;;15.00;10.50;;;29.30;92.40;;;;;;5016019;28;20078;-86
2021/07/21 09:12:56;;;;;;;15.38;11.13;;;29.40;92.30;;;;;;5011401;28;20403;-86
2021/07/21 09:15:24;;;;;;;12.27;11.05;;;29.40;92.20;;;;;;5027377;28;20582;-86
2021/07/21 09:18:02;;;;;;;14.57;10.60;;;29.50;92.10;;;;;;5004719;28;20052;-87
2021/07/21 09:20:29;;;;;;;14.75;10.00;;;29.60;92.10;;;;;;5008381;28;20061;-86
2021/07/21 09:22:56;;;;;;;10.40;9.13;;;29.60;91.90;;;;;;5008262;28;20045;-86
2021/07/21 09:25:29;;;;;;;12.27;10.25;;;29.70;91.70;;;;;;5027229;28;20391;-86
2021/07/21 09:27:58;;;;;;;17.13;10.10;;;29.80;91.40;;;;;;5009262;28;20383;-86
2021/07/21 09:30:30;;;;;;;10.98;9.75;;;29.80;91.10;;;;;;5026854;28;20049;-86
2021/07/21 09:33:09;;;;;;;12.43;9.35;;;29.90;91.10;;;;;;5010256;28;20388;-86
2021/07/21 09:35:42;;;;;;;11.40;8.50;;;29.90;90.10;;;;;;5018407;28;20125;-86
2021/07/21 09:38:12;;;;;;;12.57;8.45;;;30.00;90.60;;;;;;5023004;28;20041;-86
2021/07/21 09:40:48;;;;;;;11.65;8.50;;;30.10;90.40;;;;;;5012751;28;20042;-86
2021/07/21 09:43:21;;;;;;;12.40;8.35;;;30.10;90.50;;;;;;5034966;28;20373;-86
2021/07/21 09:45:49;;;;;;;11.32;8.10;;;30.20;90.30;;;;;;5031176;28;20076;-86
2021/07/21 09:48:19;;;;;;;12.30;7.93;;;30.20;90.30;;;;;;5013107;28;20571;-86
2021/07/21 09:50:48;;;;;;;10.95;7.95;;;30.30;90.20;;;;;;5017480;28;20077;-86
2021/07/21 09:53:16;;;;;;;10.50;8.18;;;30.40;90.00;;;;;;5023377;28;20482;-87
2021/07/21 09:55:44;;;;;;;12.70;7.37;;;30.40;90.10;;;;;;5014317;28;20088;-86
2021/07/21 09:58:19;;;;;;;12.38;7.65;;;30.50;90.10;;;;;;5011864;28;20046;-86
2021/07/21 10:00:49;;;;;;;20.40;8.63;;;30.50;89.90;;;;;;4999914;28;20061;-86
2021/07/21 10:03:17;;;;;;;13.25;7.18;;;30.60;90.00;;;;;;5028509;28;20076;-85
2021/07/21 10:06:05;;;;;;;11.38;7.13;;;30.60;89.60;;;;;;5012744;28;20045;-86
2021/07/21 10:08:44;;;;;;;10.55;6.22;;;30.60;87.50;;;;;;5007480;28;20057;-85
2021/07/21 10:11:31;;;;;;;9.23;6.28;;;30.60;87.90;;;;;;5019144;28;20052;-86
2021/07/21 10:14:01;;;;;;;10.10;6.80;;;30.60;87.20;;;;;;5024479;28;20057;-86
2021/07/21 10:16:49;;;;;;;9.45;6.30;;;30.60;87.90;;;;;;5005076;28;20435;-86
2021/07/21 10:19:19;;;;;;;;;;;30.60;87.80;;;;;;5020752;28;20045;-86
2021/07/21 10:21:51;;;;;;;13.23;6.47;;;30.60;87.90;;;;;;5032130;28;20369;-86
2021/07/21 10:24:20;;;;;;;9.60;6.07;;;30.60;87.10;;;;;;5011772;28;20037;-86
2021/07/21 10:26:48;;;;;;;9.38;5.55;;;30.70;87.50;;;;;;5012154;28;20045;-86
2021/07/21 10:29:15;;;;;;;10.82;6.40;;;30.70;87.10;;;;;;5014270;28;20073;-86
2021/07/21 10:31:44;;;;;;;8.95;5.40;;;30.80;86.80;;;;;;5013552;28;20037;-86
2021/07/21 10:34:11;;;;;;;;;;;30.80;86.90;;;;;;5010466;28;20762;-86
2021/07/21 10:36:38;;;;;;;15.43;5.75;;;30.80;85.70;;;;;;5019924;28;19955;-86
2021/07/21 10:39:18;;;;;;;8.27;6.50;;;30.90;86.50;;;;;;5024031;28;20068;-86
2021/07/21 10:41:47;;;;;;;11.50;5.95;;;30.90;85.80;;;;;;5029287;28;20049;-86
2021/07/21 10:44:17;;;;;;;8.18;5.57;;;30.90;86.70;;;;;;5014982;28;20064;-87
2021/07/21 10:46:54;;;;;;;7.65;6.25;;;30.90;86.70;;;;;;5037760;28;20144;-86
2021/07/21 10:49:46;;;;;;;12.68;6.65;;;31.00;86.70;;;;;;5021110;28;20116;-86
2021/07/21 10:54:59;;;;;;;9.80;5.45;;;31.00;86.20;;;;;;5028716;28;20129;-86
2021/07/21 11:00:21;;;;;;;11.75;5.90;;;31.20;86.20;;;;;;5027618;28;20490;-86
2021/07/21 11:02:50;;;;;;;10.68;6.53;;;31.20;86.40;;;;;;5018550;28;20103;-85
2021/07/21 11:05:26;;;;;;;10.10;5.78;;;31.20;85.70;;;;;;5015395;28;20119;-86
2021/07/21 11:07:55;;;;;;;8.82;5.88;;;31.20;86.20;;;;;;5031100;28;20052;-86
2021/07/21 11:10:43;;;;;;;10.88;6.43;;;31.20;86.00;;;;;;5013452;28;20088;-86
2021/07/21 11:13:36;;;;;;;8.80;5.78;;;31.20;86.20;;;;;;5008194;28;20165;-86
2021/07/21 11:16:04;;;;;;;11.75;6.18;;;31.30;86.70;;;;;;5009784;28;20076;-85
2021/07/21 11:18:34;;;;;;;8.75;5.50;;;31.30;86.20;;;;;;5010916;28;20115;-86
2021/07/21 11:21:14;;;;;;;7.18;5.50;;;31.30;86.20;;;;;;5011379;28;20041;-85
2021/07/21 11:23:45;;;;;;;9.02;5.30;;;31.40;85.70;;;;;;5011428;28;20038;-86
2021/07/21 11:26:31;;;;;;;8.25;5.57;;;31.40;84.90;;;;;;5014270;28;20046;-86
2021/07/21 11:29:24;;;;;;;8.65;5.47;;;31.40;82.70;;;;;;5012400;28;20211;-86
2021/07/21 11:31:54;;;;;;;8.38;4.75;;;31.40;83.80;;;;;;5000681;28;20129;-86
2021/07/21 11:34:41;;;;;;;9.63;5.40;;;31.30;83.80;;;;;;5002974;28;20052;-86
2021/07/21 11:37:29;;;;;;;8.35;4.90;;;31.30;82.00;;;;;;5029398;28;20148;-86
2021/07/21 11:39:58;;;;;;;7.75;5.20;;;31.20;81.50;;;;;;5008910;28;20038;-86
2021/07/21 11:42:38;;;;;;;12.05;5.00;;;31.00;82.20;;;;;;5007820;28;20045;-86
2021/07/21 11:45:13;;;;;;;6.97;4.82;;;30.90;82.90;;;;;;5012118;28;20128;-86
2021/07/21 11:47:55;;;;;;;8.55;4.90;;;30.90;82.80;;;;;;5010625;28;20068;-86
2021/07/21 11:50:33;;;;;;;8.02;4.60;;;30.90;82.60;;;;;;5010682;28;20041;-86
2021/07/21 11:53:04;;;;;;;6.65;4.93;;;30.90;82.40;;;;;;5011062;28;20057;-86
2021/07/21 11:55:33;;;;;;;8.50;4.90;;;30.90;82.20;;;;;;5012326;28;20065;-86
2021/07/21 11:58:11;;;;;;;7.68;4.63;;;31.00;82.40;;;;;;5029324;28;20112;-86
2021/07/21 12:00:38;;;;;;;7.38;4.40;;;31.10;82.00;;;;;;4996205;28;20038;-86
2021/07/21 12:03:08;;;;;;;12.65;4.13;;;31.20;82.20;;;;;;4995531;28;20046;-86
2021/07/21 12:05:36;;;;;;;9.95;4.65;;;31.30;81.50;;;;;;5014612;28;20046;-86
2021/07/21 12:08:20;;;;;;;8.65;4.55;;;31.30;80.70;;;;;;5002999;28;20097;-87
2021/07/21 12:10:48;;;;;;;8.85;4.85;;;31.40;80.90;;;;;;5001283;28;20053;-86
2021/07/21 12:13:19;;;;;;;9.82;5.15;;;31.40;80.80;;;;;;4998019;28;20503;-86
2021/07/21 12:15:56;;;;;;;10.02;4.97;;;31.50;80.50;;;;;;5024872;28;20701;-84
2021/07/21 12:18:24;;;;;;;10.63;6.90;;;31.50;80.20;;;;;;4999144;28;20273;-84
2021/07/21 12:20:52;;;;;;;10.30;7.22;;;31.50;81.40;;;;;;4999194;28;20085;-84
2021/07/21 12:23:24;;;;;;;12.77;7.68;;;31.60;82.70;;;;;;5011908;28;20042;-84
2021/07/21 12:25:51;;;;;;;9.68;5.88;;;31.70;83.90;;;;;;4997366;28;20510;-84
2021/07/21 12:28:20;;;;;;;10.35;5.00;;;31.70;82.80;;;;;;4994615;28;20053;-83
2021/07/21 12:30:56;;;;;;;7.28;4.95;;;31.70;81.10;;;;;;4986029;28;20061;-86
2021/07/21 12:33:24;;;;;;;8.45;6.30;;;31.80;80.40;;;;;;4991846;28;20082;-85
2021/07/21 12:35:51;;;;;;;12.73;7.97;;;31.80;81.20;;;;;;5004452;28;20056;-86
2021/07/21 12:38:19;;;;;;;11.10;7.95;;;31.70;83.00;;;;;;4993472;28;20057;-86
2021/07/21 12:40:46;;;;;;;10.57;8.65;;;31.70;83.70;;;;;;4991200;28;20054;-85
2021/07/21 12:43:16;;;;;;;12.68;8.88;;;31.70;84.60;;;;;;4985384;28;20049;-85
2021/07/21 12:45:43;;;;;;;11.65;9.38;;;31.80;85.00;;;;;;4999751;28;20077;-85
2021/07/21 12:48:10;;;;;;;12.60;8.80;;;31.70;84.70;;;;;;4990697;28;20073;-85
2021/07/21 12:50:38;;;;;;;11.13;8.55;;;31.80;85.20;;;;;;5002313;28;20469;-85
2021/07/21 12:53:07;;;;;;;;;;;31.80;84.90;;;;;;5002685;28;20050;-85
2021/07/21 12:55:39;;;;;;;10.30;8.93;;;31.80;84.30;;;;;;4987222;28;19922;-85
2021/07/21 12:58:13;;;;;;;18.10;11.20;;;31.80;84.50;;;;;;4986968;28;20403;-84
2021/07/21 13:00:47;;;;;;;13.95;10.32;;;31.80;84.80;;;;;;5007894;28;20041;-85
2021/07/21 13:03:17;;;;;;;13.85;10.60;;;31.80;84.40;;;;;;5024722;28;20052;-86